sensor_id;sensor_type;location;lat;lon;timestamp;P1;durP1;ratioP1;P2;durP2;ratioP2
15545;SDS011;7874;48.870;11.074;2022-07-23T00:00:14;0.55;;;0.55;;
15545;SDS011;7874;48.870;11.074;2022-07-23T00:02:42;3.15;;;1.42;;
15545;SDS011;7874;48.870;11.074;2022-07-23T00:05:10;1.52;;;1.42;;
15545;SDS011;7874;48.870;11.074;2022-07-23T00:07:37;0.22;;;0.22;;
15545;SDS011;7874;48.870;11.074;2022-07-23T00:10:05;1.13;;;1.02;;
15545;SDS011;7874;48.870;11.074;2022-07-23T00:12:32;0.70;;;0.63;;
15545;SDS011;7874;48.870;11.074;2022-07-23T00:14:59;0.40;;;0.40;;
15545;SDS011;7874;48.870;11.074;2022-07-23T00:17:27;0.38;;;0.38;;
15545;SDS011;7874;48.870;11.074;2022-07-23T00:19:54;0.45;;;0.43;;
15545;SDS011;7874;48.870;11.074;2022-07-23T00:22:22;0.50;;;0.50;;
15545;SDS011;7874;48.870;11.074;2022-07-23T00:24:49;0.73;;;0.73;;
15545;SDS011;7874;48.870;11.074;2022-07-23T00:27:16;0.70;;;0.70;;
15545;SDS011;7874;48.870;11.074;2022-07-23T00:29:43;0.73;;;0.73;;
15545;SDS011;7874;48.870;11.074;2022-07-23T00:32:10;1.10;;;0.82;;
15545;SDS011;7874;48.870;11.074;2022-07-23T00:34:37;0.85;;;0.77;;
15545;SDS011;7874;48.870;11.074;2022-07-23T00:37:04;1.05;;;1.05;;
15545;SDS011;7874;48.870;11.074;2022-07-23T00:39:33;0.70;;;0.70;;
15545;SDS011;7874;48.870;11.074;2022-07-23T00:42:00;1.85;;;1.35;;
15545;SDS011;7874;48.870;11.074;2022-07-23T00:44:27;0.80;;;0.80;;
15545;SDS011;7874;48.870;11.074;2022-07-23T00:46:56;2.33;;;1.98;;
15545;SDS011;7874;48.870;11.074;2022-07-23T00:49:23;0.50;;;0.50;;
15545;SDS011;7874;48.870;11.074;2022-07-23T00:51:51;0.70;;;0.70;;
15545;SDS011;7874;48.870;11.074;2022-07-23T00:54:18;0.68;;;0.68;;
15545;SDS011;7874;48.870;11.074;2022-07-23T00:56:46;0.50;;;0.50;;
15545;SDS011;7874;48.870;11.074;2022-07-23T00:59:14;0.60;;;0.60;;
15545;SDS011;7874;48.870;11.074;2022-07-23T01:01:41;1.92;;;1.25;;
15545;SDS011;7874;48.870;11.074;2022-07-23T01:04:09;0.57;;;0.57;;
15545;SDS011;7874;48.870;11.074;2022-07-23T01:06:36;0.63;;;0.63;;
15545;SDS011;7874;48.870;11.074;2022-07-23T01:09:04;0.40;;;0.40;;
15545;SDS011;7874;48.870;11.074;2022-07-23T01:11:31;1.95;;;1.85;;
15545;SDS011;7874;48.870;11.074;2022-07-23T01:14:06;30.88;;;1.95;;
15545;SDS011;7874;48.870;11.074;2022-07-23T01:16:33;0.98;;;0.88;;
15545;SDS011;7874;48.870;11.074;2022-07-23T01:19:00;1.27;;;1.17;;
15545;SDS011;7874;48.870;11.074;2022-07-23T01:21:29;1.17;;;1.10;;
15545;SDS011;7874;48.870;11.074;2022-07-23T01:23:58;0.82;;;0.82;;
15545;SDS011;7874;48.870;11.074;2022-07-23T01:26:25;1.27;;;1.05;;
15545;SDS011;7874;48.870;11.074;2022-07-23T01:28:52;0.63;;;0.63;;
15545;SDS011;7874;48.870;11.074;2022-07-23T01:31:19;4.35;;;2.00;;
15545;SDS011;7874;48.870;11.074;2022-07-23T01:33:46;1.02;;;1.02;;
15545;SDS011;7874;48.870;11.074;2022-07-23T01:36:13;0.60;;;0.47;;
15545;SDS011;7874;48.870;11.074;2022-07-23T01:38:40;1.00;;;1.00;;
15545;SDS011;7874;48.870;11.074;2022-07-23T01:41:08;1.63;;;1.52;;
15545;SDS011;7874;48.870;11.074;2022-07-23T01:43:35;2.75;;;1.08;;
15545;SDS011;7874;48.870;11.074;2022-07-23T01:46:02;0.70;;;0.70;;
15545;SDS011;7874;48.870;11.074;2022-07-23T01:48:29;0.90;;;0.90;;
15545;SDS011;7874;48.870;11.074;2022-07-23T01:50:56;0.80;;;0.80;;
15545;SDS011;7874;48.870;11.074;2022-07-23T01:53:23;1.15;;;1.08;;
15545;SDS011;7874;48.870;11.074;2022-07-23T01:55:50;1.15;;;0.68;;
15545;SDS011;7874;48.870;11.074;2022-07-23T01:58:19;1.80;;;0.52;;
15545;SDS011;7874;48.870;11.074;2022-07-23T02:00:46;0.43;;;0.43;;
15545;SDS011;7874;48.870;11.074;2022-07-23T02:04:17;0.57;;;0.57;;
15545;SDS011;7874;48.870;11.074;2022-07-23T02:06:44;1.25;;;1.15;;
15545;SDS011;7874;48.870;11.074;2022-07-23T02:09:11;1.58;;;1.48;;
15545;SDS011;7874;48.870;11.074;2022-07-23T02:11:38;0.85;;;0.85;;
15545;SDS011;7874;48.870;11.074;2022-07-23T02:14:05;0.50;;;0.50;;
15545;SDS011;7874;48.870;11.074;2022-07-23T02:16:32;0.70;;;0.70;;
15545;SDS011;7874;48.870;11.074;2022-07-23T02:18:59;0.35;;;0.35;;
15545;SDS011;7874;48.870;11.074;2022-07-23T02:21:28;2.50;;;0.77;;
15545;SDS011;7874;48.870;11.074;2022-07-23T02:23:55;0.65;;;0.65;;
15545;SDS011;7874;48.870;11.074;2022-07-23T02:26:22;0.70;;;0.68;;
15545;SDS011;7874;48.870;11.074;2022-07-23T02:28:49;0.32;;;0.32;;
15545;SDS011;7874;48.870;11.074;2022-07-23T02:31:17;0.65;;;0.63;;
15545;SDS011;7874;48.870;11.074;2022-07-23T02:33:44;0.52;;;0.52;;
15545;SDS011;7874;48.870;11.074;2022-07-23T02:36:11;0.60;;;0.60;;
15545;SDS011;7874;48.870;11.074;2022-07-23T02:38:40;0.60;;;0.60;;
15545;SDS011;7874;48.870;11.074;2022-07-23T02:41:07;1.25;;;1.25;;
15545;SDS011;7874;48.870;11.074;2022-07-23T02:43:34;0.65;;;0.65;;
15545;SDS011;7874;48.870;11.074;2022-07-23T02:46:01;0.65;;;0.57;;
15545;SDS011;7874;48.870;11.074;2022-07-23T02:48:28;4.53;;;0.70;;
15545;SDS011;7874;48.870;11.074;2022-07-23T02:50:55;1.63;;;1.52;;
15545;SDS011;7874;48.870;11.074;2022-07-23T02:53:22;0.68;;;0.68;;
15545;SDS011;7874;48.870;11.074;2022-07-23T02:55:50;0.63;;;0.63;;
15545;SDS011;7874;48.870;11.074;2022-07-23T02:58:18;0.50;;;0.50;;
15545;SDS011;7874;48.870;11.074;2022-07-23T03:00:45;0.55;;;0.55;;
15545;SDS011;7874;48.870;11.074;2022-07-23T03:03:12;0.55;;;0.55;;
15545;SDS011;7874;48.870;11.074;2022-07-23T03:05:39;2.35;;;0.90;;
15545;SDS011;7874;48.870;11.074;2022-07-23T03:08:06;0.60;;;0.60;;
15545;SDS011;7874;48.870;11.074;2022-07-23T03:10:33;0.45;;;0.45;;
15545;SDS011;7874;48.870;11.074;2022-07-23T03:13:01;0.70;;;0.70;;
15545;SDS011;7874;48.870;11.074;2022-07-23T03:15:28;1.50;;;1.13;;
15545;SDS011;7874;48.870;11.074;2022-07-23T03:17:55;0.30;;;0.30;;
15545;SDS011;7874;48.870;11.074;2022-07-23T03:20:22;0.90;;;0.88;;
15545;SDS011;7874;48.870;11.074;2022-07-23T03:22:49;0.20;;;0.20;;
15545;SDS011;7874;48.870;11.074;2022-07-23T03:25:16;0.65;;;0.65;;
15545;SDS011;7874;48.870;11.074;2022-07-23T03:27:43;1.30;;;1.20;;
15545;SDS011;7874;48.870;11.074;2022-07-23T03:30:12;2.38;;;0.65;;
15545;SDS011;7874;48.870;11.074;2022-07-23T03:32:39;1.25;;;1.15;;
15545;SDS011;7874;48.870;11.074;2022-07-23T03:35:06;0.75;;;0.75;;
15545;SDS011;7874;48.870;11.074;2022-07-23T03:37:34;0.45;;;0.45;;
15545;SDS011;7874;48.870;11.074;2022-07-23T03:40:01;0.38;;;0.38;;
15545;SDS011;7874;48.870;11.074;2022-07-23T03:42:28;0.77;;;0.77;;
15545;SDS011;7874;48.870;11.074;2022-07-23T03:44:55;0.50;;;0.50;;
15545;SDS011;7874;48.870;11.074;2022-07-23T03:47:24;0.52;;;0.52;;
15545;SDS011;7874;48.870;11.074;2022-07-23T03:49:51;0.50;;;0.50;;
15545;SDS011;7874;48.870;11.074;2022-07-23T03:52:18;0.90;;;0.90;;
15545;SDS011;7874;48.870;11.074;2022-07-23T03:54:45;1.30;;;0.90;;
15545;SDS011;7874;48.870;11.074;2022-07-23T03:57:12;1.15;;;1.00;;
15545;SDS011;7874;48.870;11.074;2022-07-23T03:59:39;0.32;;;0.32;;
15545;SDS011;7874;48.870;11.074;2022-07-23T04:02:06;0.70;;;0.70;;
15545;SDS011;7874;48.870;11.074;2022-07-23T04:04:34;0.68;;;0.68;;
15545;SDS011;7874;48.870;11.074;2022-07-23T04:07:01;0.32;;;0.32;;
15545;SDS011;7874;48.870;11.074;2022-07-23T04:09:28;0.88;;;0.88;;
15545;SDS011;7874;48.870;11.074;2022-07-23T04:11:55;0.77;;;0.77;;
15545;SDS011;7874;48.870;11.074;2022-07-23T04:14:22;0.55;;;0.50;;
15545;SDS011;7874;48.870;11.074;2022-07-23T04:16:49;0.55;;;0.45;;
15545;SDS011;7874;48.870;11.074;2022-07-23T04:19:17;0.90;;;0.90;;
15545;SDS011;7874;48.870;11.074;2022-07-23T04:21:45;0.55;;;0.55;;
15545;SDS011;7874;48.870;11.074;2022-07-23T04:24:12;1.08;;;1.00;;
15545;SDS011;7874;48.870;11.074;2022-07-23T04:26:39;0.63;;;0.63;;
15545;SDS011;7874;48.870;11.074;2022-07-23T04:29:06;0.60;;;0.60;;
15545;SDS011;7874;48.870;11.074;2022-07-23T04:31:33;0.20;;;0.20;;
15545;SDS011;7874;48.870;11.074;2022-07-23T04:34:00;2.15;;;2.05;;
15545;SDS011;7874;48.870;11.074;2022-07-23T04:36:27;1.02;;;1.02;;
15545;SDS011;7874;48.870;11.074;2022-07-23T04:38:55;0.38;;;0.38;;
15545;SDS011;7874;48.870;11.074;2022-07-23T04:41:22;0.30;;;0.30;;
15545;SDS011;7874;48.870;11.074;2022-07-23T04:43:49;0.50;;;0.50;;
15545;SDS011;7874;48.870;11.074;2022-07-23T04:46:17;0.60;;;0.60;;
15545;SDS011;7874;48.870;11.074;2022-07-23T04:48:44;0.90;;;0.90;;
15545;SDS011;7874;48.870;11.074;2022-07-23T04:53:04;0.88;;;0.88;;
15545;SDS011;7874;48.870;11.074;2022-07-23T04:55:31;0.88;;;0.68;;
15545;SDS011;7874;48.870;11.074;2022-07-23T04:57:58;0.88;;;0.82;;
15545;SDS011;7874;48.870;11.074;2022-07-23T05:00:25;0.38;;;0.38;;
15545;SDS011;7874;48.870;11.074;2022-07-23T05:02:52;0.40;;;0.40;;
15545;SDS011;7874;48.870;11.074;2022-07-23T05:05:20;0.55;;;0.55;;
15545;SDS011;7874;48.870;11.074;2022-07-23T05:07:47;0.20;;;0.20;;
15545;SDS011;7874;48.870;11.074;2022-07-23T05:10:15;1.17;;;0.95;;
15545;SDS011;7874;48.870;11.074;2022-07-23T05:12:42;0.82;;;0.82;;
15545;SDS011;7874;48.870;11.074;2022-07-23T05:15:09;1.77;;;0.75;;
15545;SDS011;7874;48.870;11.074;2022-07-23T05:17:36;1.42;;;1.25;;
15545;SDS011;7874;48.870;11.074;2022-07-23T05:20:03;0.82;;;0.77;;
15545;SDS011;7874;48.870;11.074;2022-07-23T05:22:31;0.47;;;0.47;;
15545;SDS011;7874;48.870;11.074;2022-07-23T05:24:58;0.88;;;0.88;;
15545;SDS011;7874;48.870;11.074;2022-07-23T05:27:26;0.50;;;0.50;;
15545;SDS011;7874;48.870;11.074;2022-07-23T05:29:54;0.95;;;0.95;;
15545;SDS011;7874;48.870;11.074;2022-07-23T05:32:21;0.40;;;0.40;;
15545;SDS011;7874;48.870;11.074;2022-07-23T05:34:48;0.57;;;0.57;;
15545;SDS011;7874;48.870;11.074;2022-07-23T05:37:15;1.50;;;1.25;;
15545;SDS011;7874;48.870;11.074;2022-07-23T05:39:42;0.52;;;0.52;;
15545;SDS011;7874;48.870;11.074;2022-07-23T05:42:09;0.73;;;0.73;;
15545;SDS011;7874;48.870;11.074;2022-07-23T05:44:37;0.73;;;0.73;;
15545;SDS011;7874;48.870;11.074;2022-07-23T05:47:04;1.20;;;1.10;;
15545;SDS011;7874;48.870;11.074;2022-07-23T05:49:31;0.77;;;0.77;;
15545;SDS011;7874;48.870;11.074;2022-07-23T05:51:58;0.55;;;0.55;;
15545;SDS011;7874;48.870;11.074;2022-07-23T05:54:29;0.40;;;0.40;;
15545;SDS011;7874;48.870;11.074;2022-07-23T05:56:56;0.47;;;0.47;;
15545;SDS011;7874;48.870;11.074;2022-07-23T05:59:23;0.73;;;0.73;;
15545;SDS011;7874;48.870;11.074;2022-07-23T06:01:52;0.50;;;0.50;;
15545;SDS011;7874;48.870;11.074;2022-07-23T06:04:19;0.52;;;0.52;;
15545;SDS011;7874;48.870;11.074;2022-07-23T06:06:46;0.50;;;0.50;;
15545;SDS011;7874;48.870;11.074;2022-07-23T06:09:13;0.70;;;0.43;;
15545;SDS011;7874;48.870;11.074;2022-07-23T06:11:40;1.20;;;0.82;;
15545;SDS011;7874;48.870;11.074;2022-07-23T06:14:07;1.83;;;1.33;;
15545;SDS011;7874;48.870;11.074;2022-07-23T06:16:34;0.70;;;0.70;;
15545;SDS011;7874;48.870;11.074;2022-07-23T06:19:02;0.22;;;0.22;;
15545;SDS011;7874;48.870;11.074;2022-07-23T06:21:30;0.75;;;0.75;;
15545;SDS011;7874;48.870;11.074;2022-07-23T06:23:57;0.55;;;0.55;;
15545;SDS011;7874;48.870;11.074;2022-07-23T06:26:24;0.98;;;0.98;;
15545;SDS011;7874;48.870;11.074;2022-07-23T06:28:51;0.47;;;0.47;;
15545;SDS011;7874;48.870;11.074;2022-07-23T06:31:18;0.68;;;0.68;;
15545;SDS011;7874;48.870;11.074;2022-07-23T06:33:45;17.83;;;1.50;;
15545;SDS011;7874;48.870;11.074;2022-07-23T06:36:13;0.28;;;0.28;;
15545;SDS011;7874;48.870;11.074;2022-07-23T06:38:40;0.30;;;0.30;;
15545;SDS011;7874;48.870;11.074;2022-07-23T06:41:07;1.33;;;1.30;;
15545;SDS011;7874;48.870;11.074;2022-07-23T06:43:34;0.80;;;0.80;;
15545;SDS011;7874;48.870;11.074;2022-07-23T06:46:01;0.40;;;0.40;;
15545;SDS011;7874;48.870;11.074;2022-07-23T06:48:28;0.20;;;0.20;;
15545;SDS011;7874;48.870;11.074;2022-07-23T06:50:55;0.40;;;0.40;;
15545;SDS011;7874;48.870;11.074;2022-07-23T06:53:24;0.52;;;0.52;;
15545;SDS011;7874;48.870;11.074;2022-07-23T06:55:51;0.47;;;0.47;;
15545;SDS011;7874;48.870;11.074;2022-07-23T06:58:18;0.40;;;0.40;;
15545;SDS011;7874;48.870;11.074;2022-07-23T07:00:45;0.57;;;0.57;;
15545;SDS011;7874;48.870;11.074;2022-07-23T07:03:12;0.57;;;0.57;;
15545;SDS011;7874;48.870;11.074;2022-07-23T07:05:39;1.05;;;0.93;;
15545;SDS011;7874;48.870;11.074;2022-07-23T07:08:06;0.70;;;0.70;;
15545;SDS011;7874;48.870;11.074;2022-07-23T07:10:35;0.68;;;0.68;;
15545;SDS011;7874;48.870;11.074;2022-07-23T07:13:02;19.02;;;1.33;;
15545;SDS011;7874;48.870;11.074;2022-07-23T07:15:29;0.50;;;0.50;;
15545;SDS011;7874;48.870;11.074;2022-07-23T07:17:57;1.30;;;0.90;;
15545;SDS011;7874;48.870;11.074;2022-07-23T07:20:24;0.30;;;0.30;;
15545;SDS011;7874;48.870;11.074;2022-07-23T07:22:51;0.40;;;0.40;;
15545;SDS011;7874;48.870;11.074;2022-07-23T07:25:18;0.98;;;0.98;;
15545;SDS011;7874;48.870;11.074;2022-07-23T07:27:46;0.45;;;0.40;;
15545;SDS011;7874;48.870;11.074;2022-07-23T07:30:14;0.30;;;0.30;;
15545;SDS011;7874;48.870;11.074;2022-07-23T07:32:41;0.45;;;0.45;;
15545;SDS011;7874;48.870;11.074;2022-07-23T07:35:08;0.40;;;0.40;;
15545;SDS011;7874;48.870;11.074;2022-07-23T07:37:35;0.68;;;0.68;;
15545;SDS011;7874;48.870;11.074;2022-07-23T07:41:50;0.68;;;0.68;;
15545;SDS011;7874;48.870;11.074;2022-07-23T07:44:18;0.90;;;0.90;;
15545;SDS011;7874;48.870;11.074;2022-07-23T07:46:45;3.55;;;1.13;;
15545;SDS011;7874;48.870;11.074;2022-07-23T07:49:12;0.45;;;0.45;;
15545;SDS011;7874;48.870;11.074;2022-07-23T07:51:42;0.70;;;0.70;;
15545;SDS011;7874;48.870;11.074;2022-07-23T07:54:09;0.30;;;0.25;;
15545;SDS011;7874;48.870;11.074;2022-07-23T07:56:36;0.75;;;0.75;;
15545;SDS011;7874;48.870;11.074;2022-07-23T07:59:05;1.15;;;0.93;;
15545;SDS011;7874;48.870;11.074;2022-07-23T08:01:32;0.75;;;0.75;;
15545;SDS011;7874;48.870;11.074;2022-07-23T08:04:02;0.63;;;0.63;;
15545;SDS011;7874;48.870;11.074;2022-07-23T08:06:29;1.30;;;1.20;;
15545;SDS011;7874;48.870;11.074;2022-07-23T08:08:56;1.13;;;1.10;;
15545;SDS011;7874;48.870;11.074;2022-07-23T08:11:24;0.80;;;0.80;;
15545;SDS011;7874;48.870;11.074;2022-07-23T08:13:51;1.50;;;1.40;;
15545;SDS011;7874;48.870;11.074;2022-07-23T08:16:20;0.60;;;0.60;;
15545;SDS011;7874;48.870;11.074;2022-07-23T08:18:47;0.73;;;0.73;;
15545;SDS011;7874;48.870;11.074;2022-07-23T08:21:14;1.75;;;1.25;;
15545;SDS011;7874;48.870;11.074;2022-07-23T08:23:41;1.58;;;1.50;;
15545;SDS011;7874;48.870;11.074;2022-07-23T08:26:08;5.47;;;2.05;;
15545;SDS011;7874;48.870;11.074;2022-07-23T08:28:35;4.38;;;3.10;;
15545;SDS011;7874;48.870;11.074;2022-07-23T08:31:02;1.25;;;1.17;;
15545;SDS011;7874;48.870;11.074;2022-07-23T08:33:31;1.10;;;1.10;;
15545;SDS011;7874;48.870;11.074;2022-07-23T08:35:59;0.77;;;0.77;;
15545;SDS011;7874;48.870;11.074;2022-07-23T08:38:27;0.90;;;0.82;;
15545;SDS011;7874;48.870;11.074;2022-07-23T08:40:55;1.00;;;1.00;;
15545;SDS011;7874;48.870;11.074;2022-07-23T08:43:23;0.95;;;0.95;;
15545;SDS011;7874;48.870;11.074;2022-07-23T08:45:50;0.75;;;0.75;;
15545;SDS011;7874;48.870;11.074;2022-07-23T08:48:18;0.50;;;0.50;;
15545;SDS011;7874;48.870;11.074;2022-07-23T08:50:48;0.45;;;0.45;;
15545;SDS011;7874;48.870;11.074;2022-07-23T08:53:17;0.40;;;0.40;;
15545;SDS011;7874;48.870;11.074;2022-07-23T08:55:44;1.05;;;0.98;;
15545;SDS011;7874;48.870;11.074;2022-07-23T08:58:12;0.68;;;0.47;;
15545;SDS011;7874;48.870;11.074;2022-07-23T09:00:39;0.82;;;0.82;;
15545;SDS011;7874;48.870;11.074;2022-07-23T09:03:06;0.22;;;0.22;;
15545;SDS011;7874;48.870;11.074;2022-07-23T09:05:33;1.08;;;1.00;;
15545;SDS011;7874;48.870;11.074;2022-07-23T09:10:44;0.40;;;0.40;;
15545;SDS011;7874;48.870;11.074;2022-07-23T09:16:05;0.55;;;0.55;;
15545;SDS011;7874;48.870;11.074;2022-07-23T09:18:34;1.85;;;1.60;;
15545;SDS011;7874;48.870;11.074;2022-07-23T09:21:14;2.17;;;1.40;;
15545;SDS011;7874;48.870;11.074;2022-07-23T09:23:42;3.22;;;3.03;;
15545;SDS011;7874;48.870;11.074;2022-07-23T09:26:21;2.38;;;2.28;;
15545;SDS011;7874;48.870;11.074;2022-07-23T09:28:55;28.08;;;24.17;;
15545;SDS011;7874;48.870;11.074;2022-07-23T09:31:23;18.13;;;16.60;;
15545;SDS011;7874;48.870;11.074;2022-07-23T09:33:51;14.35;;;12.20;;
15545;SDS011;7874;48.870;11.074;2022-07-23T09:36:26;12.70;;;10.60;;
15545;SDS011;7874;48.870;11.074;2022-07-23T09:38:53;7.88;;;6.78;;
15545;SDS011;7874;48.870;11.074;2022-07-23T09:41:22;6.10;;;4.80;;
15545;SDS011;7874;48.870;11.074;2022-07-23T09:43:54;5.88;;;5.30;;
15545;SDS011;7874;48.870;11.074;2022-07-23T09:46:22;4.93;;;4.60;;
15545;SDS011;7874;48.870;11.074;2022-07-23T09:48:49;2.65;;;2.30;;
15545;SDS011;7874;48.870;11.074;2022-07-23T09:51:17;1.67;;;1.58;;
15545;SDS011;7874;48.870;11.074;2022-07-23T09:53:47;2.15;;;1.45;;
15545;SDS011;7874;48.870;11.074;2022-07-23T09:56:14;1.15;;;1.05;;
15545;SDS011;7874;48.870;11.074;2022-07-23T09:58:43;1.08;;;1.08;;
15545;SDS011;7874;48.870;11.074;2022-07-23T10:01:13;0.90;;;0.90;;
15545;SDS011;7874;48.870;11.074;2022-07-23T10:03:40;0.75;;;0.75;;
15545;SDS011;7874;48.870;11.074;2022-07-23T10:06:08;4.25;;;1.63;;
15545;SDS011;7874;48.870;11.074;2022-07-23T10:08:35;1.27;;;1.17;;
15545;SDS011;7874;48.870;11.074;2022-07-23T10:11:02;2.67;;;1.85;;
15545;SDS011;7874;48.870;11.074;2022-07-23T10:13:29;0.50;;;0.40;;
15545;SDS011;7874;48.870;11.074;2022-07-23T10:16:16;0.70;;;0.70;;
15545;SDS011;7874;48.870;11.074;2022-07-23T10:18:43;1.17;;;0.80;;
15545;SDS011;7874;48.870;11.074;2022-07-23T10:21:10;1.20;;;0.75;;
15545;SDS011;7874;48.870;11.074;2022-07-23T10:23:39;0.70;;;0.55;;
15545;SDS011;7874;48.870;11.074;2022-07-23T10:26:10;0.77;;;0.77;;
15545;SDS011;7874;48.870;11.074;2022-07-23T10:30:41;0.63;;;0.63;;
15545;SDS011;7874;48.870;11.074;2022-07-23T10:33:15;0.80;;;0.80;;
15545;SDS011;7874;48.870;11.074;2022-07-23T10:35:47;2.08;;;1.33;;
15545;SDS011;7874;48.870;11.074;2022-07-23T10:38:18;0.85;;;0.85;;
15545;SDS011;7874;48.870;11.074;2022-07-23T10:40:56;1.08;;;1.00;;
15545;SDS011;7874;48.870;11.074;2022-07-23T10:43:24;0.32;;;0.32;;
15545;SDS011;7874;48.870;11.074;2022-07-23T10:45:52;0.40;;;0.40;;
15545;SDS011;7874;48.870;11.074;2022-07-23T10:48:20;0.75;;;0.73;;
15545;SDS011;7874;48.870;11.074;2022-07-23T10:53:54;0.73;;;0.73;;
15545;SDS011;7874;48.870;11.074;2022-07-23T10:59:04;0.63;;;0.63;;
15545;SDS011;7874;48.870;11.074;2022-07-23T11:01:32;1.23;;;1.23;;
15545;SDS011;7874;48.870;11.074;2022-07-23T11:04:00;0.45;;;0.45;;
15545;SDS011;7874;48.870;11.074;2022-07-23T11:09:23;1.55;;;0.77;;
15545;SDS011;7874;48.870;11.074;2022-07-23T11:11:59;0.80;;;0.80;;
15545;SDS011;7874;48.870;11.074;2022-07-23T11:14:59;0.35;;;0.35;;
15545;SDS011;7874;48.870;11.074;2022-07-23T11:17:27;0.65;;;0.38;;
15545;SDS011;7874;48.870;11.074;2022-07-23T11:20:14;0.38;;;0.38;;
15545;SDS011;7874;48.870;11.074;2022-07-23T11:22:46;2.13;;;1.55;;
15545;SDS011;7874;48.870;11.074;2022-07-23T11:25:26;0.80;;;0.80;;
15545;SDS011;7874;48.870;11.074;2022-07-23T11:27:55;0.60;;;0.60;;
15545;SDS011;7874;48.870;11.074;2022-07-23T11:30:37;0.57;;;0.57;;
15545;SDS011;7874;48.870;11.074;2022-07-23T11:33:20;0.77;;;0.77;;
15545;SDS011;7874;48.870;11.074;2022-07-23T11:35:48;0.38;;;0.38;;
15545;SDS011;7874;48.870;11.074;2022-07-23T11:38:16;0.68;;;0.68;;
15545;SDS011;7874;48.870;11.074;2022-07-23T11:40:45;0.30;;;0.30;;
15545;SDS011;7874;48.870;11.074;2022-07-23T11:43:12;0.75;;;0.75;;
15545;SDS011;7874;48.870;11.074;2022-07-23T11:45:40;0.75;;;0.75;;
15545;SDS011;7874;48.870;11.074;2022-07-23T11:48:08;0.55;;;0.52;;
15545;SDS011;7874;48.870;11.074;2022-07-23T11:50:37;0.65;;;0.65;;
15545;SDS011;7874;48.870;11.074;2022-07-23T11:53:04;0.30;;;0.30;;
15545;SDS011;7874;48.870;11.074;2022-07-23T11:55:31;0.43;;;0.43;;
15545;SDS011;7874;48.870;11.074;2022-07-23T11:57:58;0.57;;;0.52;;
15545;SDS011;7874;48.870;11.074;2022-07-23T12:00:27;0.50;;;0.50;;
15545;SDS011;7874;48.870;11.074;2022-07-23T12:02:55;4.20;;;2.08;;
15545;SDS011;7874;48.870;11.074;2022-07-23T12:05:24;1.20;;;1.15;;
15545;SDS011;7874;48.870;11.074;2022-07-23T12:07:53;0.50;;;0.50;;
15545;SDS011;7874;48.870;11.074;2022-07-23T12:10:21;0.77;;;0.77;;
15545;SDS011;7874;48.870;11.074;2022-07-23T12:12:49;0.38;;;0.38;;
15545;SDS011;7874;48.870;11.074;2022-07-23T12:15:17;1.00;;;0.68;;
15545;SDS011;7874;48.870;11.074;2022-07-23T12:17:46;0.40;;;0.40;;
15545;SDS011;7874;48.870;11.074;2022-07-23T12:20:14;1.85;;;0.73;;
15545;SDS011;7874;48.870;11.074;2022-07-23T12:22:42;0.50;;;0.50;;
15545;SDS011;7874;48.870;11.074;2022-07-23T12:25:12;0.73;;;0.73;;
15545;SDS011;7874;48.870;11.074;2022-07-23T12:27:40;0.43;;;0.43;;
15545;SDS011;7874;48.870;11.074;2022-07-23T12:30:17;2.17;;;0.57;;
15545;SDS011;7874;48.870;11.074;2022-07-23T12:32:44;0.77;;;0.77;;
15545;SDS011;7874;48.870;11.074;2022-07-23T12:35:12;0.55;;;0.55;;
15545;SDS011;7874;48.870;11.074;2022-07-23T12:37:40;0.40;;;0.40;;
15545;SDS011;7874;48.870;11.074;2022-07-23T12:43:03;0.28;;;0.28;;
15545;SDS011;7874;48.870;11.074;2022-07-23T12:45:44;0.17;;;0.17;;
15545;SDS011;7874;48.870;11.074;2022-07-23T12:48:22;0.28;;;0.28;;
15545;SDS011;7874;48.870;11.074;2022-07-23T12:50:50;0.63;;;0.63;;
15545;SDS011;7874;48.870;11.074;2022-07-23T12:53:18;0.80;;;0.80;;
15545;SDS011;7874;48.870;11.074;2022-07-23T12:55:46;1.08;;;0.65;;
15545;SDS011;7874;48.870;11.074;2022-07-23T12:58:15;1.95;;;1.40;;
15545;SDS011;7874;48.870;11.074;2022-07-23T13:03:32;0.40;;;0.40;;
15545;SDS011;7874;48.870;11.074;2022-07-23T13:05:59;0.68;;;0.68;;
15545;SDS011;7874;48.870;11.074;2022-07-23T13:08:27;0.60;;;0.60;;
15545;SDS011;7874;48.870;11.074;2022-07-23T13:10:55;0.30;;;0.30;;
15545;SDS011;7874;48.870;11.074;2022-07-23T13:13:25;7.93;;;0.80;;
15545;SDS011;7874;48.870;11.074;2022-07-23T13:15:52;0.98;;;0.98;;
15545;SDS011;7874;48.870;11.074;2022-07-23T13:19:25;0.20;;;0.20;;
15545;SDS011;7874;48.870;11.074;2022-07-23T13:21:52;0.50;;;0.50;;
15545;SDS011;7874;48.870;11.074;2022-07-23T13:24:19;0.10;;;0.10;;
15545;SDS011;7874;48.870;11.074;2022-07-23T13:26:47;0.63;;;0.63;;
15545;SDS011;7874;48.870;11.074;2022-07-23T13:29:15;0.57;;;0.57;;
15545;SDS011;7874;48.870;11.074;2022-07-23T13:31:42;0.63;;;0.63;;
15545;SDS011;7874;48.870;11.074;2022-07-23T13:34:09;0.68;;;0.68;;
15545;SDS011;7874;48.870;11.074;2022-07-23T13:36:38;0.77;;;0.77;;
15545;SDS011;7874;48.870;11.074;2022-07-23T13:39:05;0.80;;;0.73;;
15545;SDS011;7874;48.870;11.074;2022-07-23T13:41:32;0.50;;;0.50;;
15545;SDS011;7874;48.870;11.074;2022-07-23T13:44:00;0.65;;;0.65;;
15545;SDS011;7874;48.870;11.074;2022-07-23T13:46:27;0.70;;;0.70;;
15545;SDS011;7874;48.870;11.074;2022-07-23T13:48:54;0.45;;;0.45;;
15545;SDS011;7874;48.870;11.074;2022-07-23T13:51:21;0.50;;;0.50;;
15545;SDS011;7874;48.870;11.074;2022-07-23T13:53:50;0.45;;;0.45;;
15545;SDS011;7874;48.870;11.074;2022-07-23T13:56:18;0.68;;;0.65;;
15545;SDS011;7874;48.870;11.074;2022-07-23T13:58:45;1.85;;;1.23;;
15545;SDS011;7874;48.870;11.074;2022-07-23T14:01:12;0.43;;;0.43;;
15545;SDS011;7874;48.870;11.074;2022-07-23T14:03:39;1.63;;;1.33;;
15545;SDS011;7874;48.870;11.074;2022-07-23T14:06:06;0.47;;;0.47;;
15545;SDS011;7874;48.870;11.074;2022-07-23T14:08:33;0.20;;;0.20;;
15545;SDS011;7874;48.870;11.074;2022-07-23T14:11:02;0.38;;;0.38;;
15545;SDS011;7874;48.870;11.074;2022-07-23T14:13:29;0.70;;;0.70;;
15545;SDS011;7874;48.870;11.074;2022-07-23T14:15:56;0.47;;;0.47;;
15545;SDS011;7874;48.870;11.074;2022-07-23T14:18:23;1.20;;;1.10;;
15545;SDS011;7874;48.870;11.074;2022-07-23T14:20:50;2.65;;;1.33;;
15545;SDS011;7874;48.870;11.074;2022-07-23T14:23:17;0.50;;;0.50;;
15545;SDS011;7874;48.870;11.074;2022-07-23T14:25:44;0.73;;;0.73;;
15545;SDS011;7874;48.870;11.074;2022-07-23T14:28:13;11.95;;;1.65;;
15545;SDS011;7874;48.870;11.074;2022-07-23T14:30:40;0.52;;;0.52;;
15545;SDS011;7874;48.870;11.074;2022-07-23T14:33:08;0.98;;;0.88;;
15545;SDS011;7874;48.870;11.074;2022-07-23T14:35:36;0.75;;;0.75;;
15545;SDS011;7874;48.870;11.074;2022-07-23T14:38:05;0.35;;;0.35;;
15545;SDS011;7874;48.870;11.074;2022-07-23T14:40:32;0.25;;;0.25;;
15545;SDS011;7874;48.870;11.074;2022-07-23T14:42:59;0.55;;;0.55;;
15545;SDS011;7874;48.870;11.074;2022-07-23T14:45:27;0.35;;;0.35;;
15545;SDS011;7874;48.870;11.074;2022-07-23T14:47:55;4.03;;;1.63;;
15545;SDS011;7874;48.870;11.074;2022-07-23T14:50:22;0.30;;;0.30;;
15545;SDS011;7874;48.870;11.074;2022-07-23T14:52:49;0.40;;;0.40;;
15545;SDS011;7874;48.870;11.074;2022-07-23T14:55:16;0.25;;;0.25;;
15545;SDS011;7874;48.870;11.074;2022-07-23T14:57:44;0.35;;;0.35;;
15545;SDS011;7874;48.870;11.074;2022-07-23T15:00:11;0.65;;;0.65;;
15545;SDS011;7874;48.870;11.074;2022-07-23T15:02:39;0.70;;;0.70;;
15545;SDS011;7874;48.870;11.074;2022-07-23T15:05:07;1.42;;;1.33;;
15545;SDS011;7874;48.870;11.074;2022-07-23T15:07:34;1.20;;;0.90;;
15545;SDS011;7874;48.870;11.074;2022-07-23T15:10:02;0.93;;;0.93;;
15545;SDS011;7874;48.870;11.074;2022-07-23T15:12:29;0.52;;;0.52;;
15545;SDS011;7874;48.870;11.074;2022-07-23T15:14:56;0.47;;;0.47;;
15545;SDS011;7874;48.870;11.074;2022-07-23T15:17:23;0.32;;;0.32;;
15545;SDS011;7874;48.870;11.074;2022-07-23T15:19:52;0.43;;;0.43;;